sensor_id;sensor_type;location;lat;lon;timestamp;pressure;altitude;pressure_sealevel;temperature;humidity
6565;BME280;3316;44.118;27.258;2022-11-20T00:02:19;100676.56;;;14.16;100.00
6565;BME280;3316;44.118;27.258;2022-11-20T00:04:45;100660.59;;;14.19;100.00
6565;BME280;3316;44.118;27.258;2022-11-20T00:07:10;100656.28;;;14.15;100.00
6565;BME280;3316;44.118;27.258;2022-11-20T00:09:36;100630.25;;;13.98;100.00
6565;BME280;3316;44.118;27.258;2022-11-20T00:12:01;100646.84;;;14.03;100.00
6565;BME280;3316;44.118;27.258;2022-11-20T00:14:26;100649.41;;;14.06;100.00
6565;BME280;3316;44.118;27.258;2022-11-20T00:16:52;100642.59;;;13.98;100.00
6565;BME280;3316;44.118;27.258;2022-11-20T00:19:17;100659.00;;;14.12;100.00
6565;BME280;3316;44.118;27.258;2022-11-20T00:21:43;100647.75;;;14.02;100.00
6565;BME280;3316;44.118;27.258;2022-11-20T00:24:08;100669.53;;;14.13;100.00
6565;BME280;3316;44.118;27.258;2022-11-20T00:26:36;100654.69;;;14.08;100.00
6565;BME280;3316;44.118;27.258;2022-11-20T00:29:01;100655.41;;;14.14;100.00
6565;BME280;3316;44.118;27.258;2022-11-20T00:31:28;100650.03;;;14.17;100.00
6565;BME280;3316;44.118;27.258;2022-11-20T00:33:54;100633.41;;;14.12;100.00
6565;BME280;3316;44.118;27.258;2022-11-20T00:36:25;100639.59;;;14.11;100.00
6565;BME280;3316;44.118;27.258;2022-11-20T00:38:55;100651.81;;;14.17;100.00
6565;BME280;3316;44.118;27.258;2022-11-20T00:41:22;100643.13;;;14.12;100.00
6565;BME280;3316;44.118;27.258;2022-11-20T00:43:48;100638.63;;;14.15;100.00
6565;BME280;3316;44.118;27.258;2022-11-20T00:46:15;100621.34;;;14.01;100.00
6565;BME280;3316;44.118;27.258;2022-11-20T00:48:42;100624.66;;;14.09;100.00
6565;BME280;3316;44.118;27.258;2022-11-20T00:51:08;100640.25;;;14.21;100.00
6565;BME280;3316;44.118;27.258;2022-11-20T00:53:34;100630.75;;;14.12;100.00
6565;BME280;3316;44.118;27.258;2022-11-20T00:56:02;100625.47;;;14.12;100.00
6565;BME280;3316;44.118;27.258;2022-11-20T00:58:32;100629.84;;;14.13;100.00
6565;BME280;3316;44.118;27.258;2022-11-20T01:03:27;100628.63;;;14.26;100.00
6565;BME280;3316;44.118;27.258;2022-11-20T01:05:53;100592.91;;;14.09;100.00
6565;BME280;3316;44.118;27.258;2022-11-20T01:08:18;100610.31;;;14.19;100.00
6565;BME280;3316;44.118;27.258;2022-11-20T01:10:43;100619.91;;;14.23;100.00
6565;BME280;3316;44.118;27.258;2022-11-20T01:13:09;100597.97;;;14.18;100.00
6565;BME280;3316;44.118;27.258;2022-11-20T01:18:43;100596.16;;;14.20;100.00
6565;BME280;3316;44.118;27.258;2022-11-20T01:21:14;100607.44;;;14.30;100.00
6565;BME280;3316;44.118;27.258;2022-11-20T01:23:42;100596.09;;;14.23;100.00
6565;BME280;3316;44.118;27.258;2022-11-20T01:26:10;100606.59;;;14.26;100.00
6565;BME280;3316;44.118;27.258;2022-11-20T01:28:39;100595.88;;;14.32;100.00
6565;BME280;3316;44.118;27.258;2022-11-20T01:31:19;100596.69;;;14.34;100.00
6565;BME280;3316;44.118;27.258;2022-11-20T01:33:46;100586.25;;;14.30;100.00
6565;BME280;3316;44.118;27.258;2022-11-20T01:36:13;100595.75;;;14.37;100.00
6565;BME280;3316;44.118;27.258;2022-11-20T01:38:39;100590.41;;;14.38;100.00
6565;BME280;3316;44.118;27.258;2022-11-20T01:41:06;100585.84;;;14.45;100.00
6565;BME280;3316;44.118;27.258;2022-11-20T01:43:32;100587.63;;;14.44;100.00
6565;BME280;3316;44.118;27.258;2022-11-20T01:46:17;100585.78;;;14.46;100.00
6565;BME280;3316;44.118;27.258;2022-11-20T01:48:54;100592.69;;;14.52;100.00
6565;BME280;3316;44.118;27.258;2022-11-20T01:53:52;100572.66;;;14.42;100.00
6565;BME280;3316;44.118;27.258;2022-11-20T01:56:19;100583.75;;;14.56;100.00
6565;BME280;3316;44.118;27.258;2022-11-20T01:58:51;100567.00;;;14.55;100.00
6565;BME280;3316;44.118;27.258;2022-11-20T02:01:18;100550.22;;;14.56;100.00
6565;BME280;3316;44.118;27.258;2022-11-20T02:03:44;100560.59;;;14.64;100.00
6565;BME280;3316;44.118;27.258;2022-11-20T02:06:23;100552.69;;;14.62;100.00
6565;BME280;3316;44.118;27.258;2022-11-20T02:08:50;100546.69;;;14.56;100.00
6565;BME280;3316;44.118;27.258;2022-11-20T02:11:16;100550.88;;;14.64;100.00
6565;BME280;3316;44.118;27.258;2022-11-20T02:13:42;100549.34;;;14.56;100.00
6565;BME280;3316;44.118;27.258;2022-11-20T02:16:29;100538.03;;;14.49;100.00
6565;BME280;3316;44.118;27.258;2022-11-20T02:18:57;100538.69;;;14.59;100.00
6565;BME280;3316;44.118;27.258;2022-11-20T02:24:20;100529.69;;;14.64;100.00
6565;BME280;3316;44.118;27.258;2022-11-20T02:26:53;100473.94;;;14.38;100.00
6565;BME280;3316;44.118;27.258;2022-11-20T02:29:31;100497.31;;;14.55;100.00
6565;BME280;3316;44.118;27.258;2022-11-20T02:31:59;100502.50;;;14.58;100.00
6565;BME280;3316;44.118;27.258;2022-11-20T02:34:26;100480.53;;;14.23;100.00
6565;BME280;3316;44.118;27.258;2022-11-20T02:36:52;100519.72;;;14.43;100.00
6565;BME280;3316;44.118;27.258;2022-11-20T02:39:19;100524.19;;;14.40;100.00
6565;BME280;3316;44.118;27.258;2022-11-20T02:41:46;100518.91;;;14.40;100.00
6565;BME280;3316;44.118;27.258;2022-11-20T02:44:11;100514.53;;;14.39;100.00
6565;BME280;3316;44.118;27.258;2022-11-20T02:46:37;100510.69;;;14.50;100.00
6565;BME280;3316;44.118;27.258;2022-11-20T02:49:03;100508.91;;;14.49;100.00
6565;BME280;3316;44.118;27.258;2022-11-20T02:51:29;100454.00;;;14.25;100.00
6565;BME280;3316;44.118;27.258;2022-11-20T02:53:55;100441.78;;;14.21;100.00
6565;BME280;3316;44.118;27.258;2022-11-20T02:56:21;100482.00;;;14.34;100.00
6565;BME280;3316;44.118;27.258;2022-11-20T02:58:46;100506.38;;;14.46;100.00
6565;BME280;3316;44.118;27.258;2022-11-20T03:01:12;100502.72;;;14.50;100.00
6565;BME280;3316;44.118;27.258;2022-11-20T03:03:37;100478.41;;;14.36;100.00
6565;BME280;3316;44.118;27.258;2022-11-20T03:06:03;100463.47;;;14.35;100.00
6565;BME280;3316;44.118;27.258;2022-11-20T03:08:28;100486.41;;;14.35;100.00
6565;BME280;3316;44.118;27.258;2022-11-20T03:10:54;100502.28;;;14.35;100.00
6565;BME280;3316;44.118;27.258;2022-11-20T03:13:19;100505.97;;;14.29;100.00
6565;BME280;3316;44.118;27.258;2022-11-20T03:15:44;100502.47;;;14.27;100.00
6565;BME280;3316;44.118;27.258;2022-11-20T03:18:10;100497.22;;;14.25;100.00
6565;BME280;3316;44.118;27.258;2022-11-20T03:20:35;100487.91;;;14.11;100.00
6565;BME280;3316;44.118;27.258;2022-11-20T03:23:01;100484.50;;;14.07;100.00
6565;BME280;3316;44.118;27.258;2022-11-20T03:25:27;100480.41;;;13.96;100.00
6565;BME280;3316;44.118;27.258;2022-11-20T03:27:53;100482.38;;;13.88;100.00
6565;BME280;3316;44.118;27.258;2022-11-20T03:30:19;100486.16;;;13.78;100.00
6565;BME280;3316;44.118;27.258;2022-11-20T03:32:45;100484.59;;;13.71;100.00
6565;BME280;3316;44.118;27.258;2022-11-20T03:35:10;100475.97;;;13.63;100.00
6565;BME280;3316;44.118;27.258;2022-11-20T03:37:36;100462.88;;;13.58;100.00
6565;BME280;3316;44.118;27.258;2022-11-20T03:40:01;100476.88;;;13.62;100.00
6565;BME280;3316;44.118;27.258;2022-11-20T03:42:27;100478.78;;;13.57;100.00
6565;BME280;3316;44.118;27.258;2022-11-20T03:45:14;100463.81;;;13.56;100.00
6565;BME280;3316;44.118;27.258;2022-11-20T03:47:40;100434.44;;;13.32;100.00
6565;BME280;3316;44.118;27.258;2022-11-20T03:50:06;100469.31;;;13.47;100.00
6565;BME280;3316;44.118;27.258;2022-11-20T03:52:32;100459.69;;;13.46;100.00
6565;BME280;3316;44.118;27.258;2022-11-20T03:54:57;100458.22;;;13.32;100.00
6565;BME280;3316;44.118;27.258;2022-11-20T03:57:23;100480.19;;;13.34;100.00
6565;BME280;3316;44.118;27.258;2022-11-20T03:59:48;100484.59;;;13.35;100.00
6565;BME280;3316;44.118;27.258;2022-11-20T04:02:13;100435.03;;;13.08;100.00
6565;BME280;3316;44.118;27.258;2022-11-20T04:04:39;100476.91;;;13.25;100.00
6565;BME280;3316;44.118;27.258;2022-11-20T04:07:04;100474.91;;;13.34;100.00
6565;BME280;3316;44.118;27.258;2022-11-20T04:09:30;100487.38;;;13.29;100.00
6565;BME280;3316;44.118;27.258;2022-11-20T04:11:55;100490.06;;;13.26;100.00
6565;BME280;3316;44.118;27.258;2022-11-20T04:14:20;100477.44;;;13.01;100.00
6565;BME280;3316;44.118;27.258;2022-11-20T04:16:46;100486.34;;;12.95;100.00
6565;BME280;3316;44.118;27.258;2022-11-20T04:19:14;100504.00;;;12.93;100.00
6565;BME280;3316;44.118;27.258;2022-11-20T04:21:40;100509.78;;;12.71;100.00
6565;BME280;3316;44.118;27.258;2022-11-20T04:24:06;100496.97;;;12.52;100.00
6565;BME280;3316;44.118;27.258;2022-11-20T04:26:32;100503.34;;;12.41;100.00
6565;BME280;3316;44.118;27.258;2022-11-20T04:28:58;100479.88;;;12.27;100.00
6565;BME280;3316;44.118;27.258;2022-11-20T04:31:26;100505.28;;;12.33;100.00
6565;BME280;3316;44.118;27.258;2022-11-20T04:33:52;100509.06;;;12.20;100.00
6565;BME280;3316;44.118;27.258;2022-11-20T04:36:23;100513.56;;;12.13;100.00
6565;BME280;3316;44.118;27.258;2022-11-20T04:38:52;100520.94;;;11.95;100.00
6565;BME280;3316;44.118;27.258;2022-11-20T04:41:20;100528.09;;;11.90;100.00
6565;BME280;3316;44.118;27.258;2022-11-20T04:43:47;100522.88;;;11.85;100.00
6565;BME280;3316;44.118;27.258;2022-11-20T04:46:14;100532.75;;;11.73;100.00
6565;BME280;3316;44.118;27.258;2022-11-20T04:48:39;100540.75;;;11.67;100.00
6565;BME280;3316;44.118;27.258;2022-11-20T04:51:05;100529.50;;;11.55;100.00
6565;BME280;3316;44.118;27.258;2022-11-20T04:53:31;100530.50;;;11.48;100.00
6565;BME280;3316;44.118;27.258;2022-11-20T04:56:00;100529.75;;;11.37;100.00
6565;BME280;3316;44.118;27.258;2022-11-20T04:58:26;100543.03;;;11.33;100.00
6565;BME280;3316;44.118;27.258;2022-11-20T05:00:52;100533.47;;;11.24;100.00
6565;BME280;3316;44.118;27.258;2022-11-20T05:03:17;100513.78;;;10.92;100.00
6565;BME280;3316;44.118;27.258;2022-11-20T05:05:43;100549.44;;;11.12;100.00
6565;BME280;3316;44.118;27.258;2022-11-20T05:08:08;100544.28;;;11.08;100.00
6565;BME280;3316;44.118;27.258;2022-11-20T05:10:34;100549.75;;;10.91;100.00
6565;BME280;3316;44.118;27.258;2022-11-20T05:12:59;100547.25;;;10.82;100.00
6565;BME280;3316;44.118;27.258;2022-11-20T05:15:24;100562.06;;;10.89;100.00
6565;BME280;3316;44.118;27.258;2022-11-20T05:17:51;100552.56;;;10.76;100.00
6565;BME280;3316;44.118;27.258;2022-11-20T05:20:17;100561.44;;;10.70;100.00
6565;BME280;3316;44.118;27.258;2022-11-20T05:22:43;100564.03;;;10.69;100.00
6565;BME280;3316;44.118;27.258;2022-11-20T05:25:09;100565.03;;;10.60;100.00
6565;BME280;3316;44.118;27.258;2022-11-20T05:27:35;100578.94;;;10.71;100.00
6565;BME280;3316;44.118;27.258;2022-11-20T05:30:00;100573.78;;;10.62;100.00
6565;BME280;3316;44.118;27.258;2022-11-20T05:32:26;100579.09;;;10.58;100.00
6565;BME280;3316;44.118;27.258;2022-11-20T05:34:52;100572.97;;;10.56;100.00
6565;BME280;3316;44.118;27.258;2022-11-20T05:37:18;100558.06;;;10.56;100.00
6565;BME280;3316;44.118;27.258;2022-11-20T05:39:43;100568.63;;;10.52;100.00
6565;BME280;3316;44.118;27.258;2022-11-20T05:42:08;100561.81;;;10.37;100.00
6565;BME280;3316;44.118;27.258;2022-11-20T05:45:06;100566.28;;;10.29;100.00
6565;BME280;3316;44.118;27.258;2022-11-20T05:47:33;100565.38;;;10.30;100.00
6565;BME280;3316;44.118;27.258;2022-11-20T05:49:59;100571.53;;;10.26;100.00
6565;BME280;3316;44.118;27.258;2022-11-20T05:52:28;100561.03;;;10.25;100.00
6565;BME280;3316;44.118;27.258;2022-11-20T05:54:53;100569.91;;;10.15;100.00
6565;BME280;3316;44.118;27.258;2022-11-20T05:57:19;100571.69;;;10.07;100.00
6565;BME280;3316;44.118;27.258;2022-11-20T05:59:44;100573.47;;;10.05;100.00
6565;BME280;3316;44.118;27.258;2022-11-20T06:02:10;100523.72;;;9.83;100.00
6565;BME280;3316;44.118;27.258;2022-11-20T06:04:35;100562.94;;;10.05;100.00
6565;BME280;3316;44.118;27.258;2022-11-20T06:07:00;100546.47;;;9.87;100.00
6565;BME280;3316;44.118;27.258;2022-11-20T06:09:26;100553.38;;;10.02;100.00
6565;BME280;3316;44.118;27.258;2022-11-20T06:11:51;100569.94;;;10.12;100.00
6565;BME280;3316;44.118;27.258;2022-11-20T06:14:17;100565.63;;;10.02;100.00
6565;BME280;3316;44.118;27.258;2022-11-20T06:16:42;100571.84;;;9.92;100.00
6565;BME280;3316;44.118;27.258;2022-11-20T06:19:08;100570.97;;;9.91;100.00
6565;BME280;3316;44.118;27.258;2022-11-20T06:21:33;100576.16;;;10.00;100.00
6565;BME280;3316;44.118;27.258;2022-11-20T06:23:58;100567.44;;;9.97;100.00
6565;BME280;3316;44.118;27.258;2022-11-20T06:26:26;100576.13;;;10.03;100.00
6565;BME280;3316;44.118;27.258;2022-11-20T06:28:53;100585.66;;;10.16;100.00
6565;BME280;3316;44.118;27.258;2022-11-20T06:31:20;100573.31;;;10.24;100.00
6565;BME280;3316;44.118;27.258;2022-11-20T06:33:47;100580.28;;;10.28;100.00
6565;BME280;3316;44.118;27.258;2022-11-20T06:36:15;100587.41;;;10.17;100.00
6565;BME280;3316;44.118;27.258;2022-11-20T06:38:41;100582.25;;;10.10;100.00
6565;BME280;3316;44.118;27.258;2022-11-20T06:41:08;100595.31;;;10.14;100.00
6565;BME280;3316;44.118;27.258;2022-11-20T06:43:35;100595.31;;;10.17;100.00
6565;BME280;3316;44.118;27.258;2022-11-20T06:46:01;100611.91;;;10.21;100.00
6565;BME280;3316;44.118;27.258;2022-11-20T06:48:27;100623.28;;;10.23;100.00
6565;BME280;3316;44.118;27.258;2022-11-20T06:50:53;100629.56;;;10.10;100.00
6565;BME280;3316;44.118;27.258;2022-11-20T06:53:19;100641.81;;;10.08;100.00
6565;BME280;3316;44.118;27.258;2022-11-20T06:55:46;100660.34;;;9.89;100.00
6565;BME280;3316;44.118;27.258;2022-11-20T06:58:12;100657.75;;;9.83;100.00
6565;BME280;3316;44.118;27.258;2022-11-20T07:00:37;100667.44;;;9.77;100.00
6565;BME280;3316;44.118;27.258;2022-11-20T07:03:07;100669.19;;;9.76;100.00
6565;BME280;3316;44.118;27.258;2022-11-20T07:05:34;100668.34;;;9.71;100.00
6565;BME280;3316;44.118;27.258;2022-11-20T07:08:00;100660.47;;;9.73;100.00
6565;BME280;3316;44.118;27.258;2022-11-20T07:10:26;100666.59;;;9.75;100.00
6565;BME280;3316;44.118;27.258;2022-11-20T07:12:52;100677.97;;;9.72;100.00
6565;BME280;3316;44.118;27.258;2022-11-20T07:15:19;100610.78;;;9.40;100.00
6565;BME280;3316;44.118;27.258;2022-11-20T07:17:45;100691.03;;;9.84;100.00
6565;BME280;3316;44.118;27.258;2022-11-20T07:20:11;100654.50;;;9.42;100.00
6565;BME280;3316;44.118;27.258;2022-11-20T07:22:36;100700.84;;;9.54;100.00
6565;BME280;3316;44.118;27.258;2022-11-20T07:25:02;100711.41;;;9.40;100.00
6565;BME280;3316;44.118;27.258;2022-11-20T07:27:28;100713.22;;;9.34;100.00
6565;BME280;3316;44.118;27.258;2022-11-20T07:29:54;100718.47;;;9.28;100.00
6565;BME280;3316;44.118;27.258;2022-11-20T07:32:19;100714.09;;;9.28;100.00
6565;BME280;3316;44.118;27.258;2022-11-20T07:34:45;100744.69;;;9.35;100.00
6565;BME280;3316;44.118;27.258;2022-11-20T07:37:11;100730.78;;;9.02;100.00
6565;BME280;3316;44.118;27.258;2022-11-20T07:39:36;100739.59;;;8.93;100.00
6565;BME280;3316;44.118;27.258;2022-11-20T07:42:02;100747.44;;;8.91;100.00
6565;BME280;3316;44.118;27.258;2022-11-20T07:44:27;100743.09;;;8.78;100.00
6565;BME280;3316;44.118;27.258;2022-11-20T07:46:53;100749.19;;;8.86;100.00
6565;BME280;3316;44.118;27.258;2022-11-20T07:49:18;100759.69;;;8.88;100.00
6565;BME280;3316;44.118;27.258;2022-11-20T07:51:44;100757.94;;;8.90;100.00
6565;BME280;3316;44.118;27.258;2022-11-20T07:54:09;100703.78;;;8.63;100.00
6565;BME280;3316;44.118;27.258;2022-11-20T07:56:34;100749.19;;;8.86;100.00
6565;BME280;3316;44.118;27.258;2022-11-20T07:59:00;100776.31;;;8.84;100.00
6565;BME280;3316;44.118;27.258;2022-11-20T08:01:25;100763.22;;;8.69;100.00
6565;BME280;3316;44.118;27.258;2022-11-20T08:03:51;100775.47;;;8.64;100.00
6565;BME280;3316;44.118;27.258;2022-11-20T08:06:16;100760.59;;;8.48;100.00
6565;BME280;3316;44.118;27.258;2022-11-20T08:08:43;100778.06;;;8.61;100.00
6565;BME280;3316;44.118;27.258;2022-11-20T08:11:09;100782.44;;;8.66;100.00
6565;BME280;3316;44.118;27.258;2022-11-20T08:13:53;100798.19;;;8.65;100.00
6565;BME280;3316;44.118;27.258;2022-11-20T08:16:37;100755.34;;;8.31;100.00
6565;BME280;3316;44.118;27.258;2022-11-20T08:19:02;100806.94;;;8.50;100.00
6565;BME280;3316;44.118;27.258;2022-11-20T08:21:28;100805.16;;;8.43;100.00
6565;BME280;3316;44.118;27.258;2022-11-20T08:23:53;100799.06;;;8.44;100.00
6565;BME280;3316;44.118;27.258;2022-11-20T08:26:18;100790.31;;;8.42;100.00
6565;BME280;3316;44.118;27.258;2022-11-20T08:28:46;100784.19;;;8.42;100.00
6565;BME280;3316;44.118;27.258;2022-11-20T08:31:11;100785.94;;;8.49;100.00
6565;BME280;3316;44.118;27.258;2022-11-20T08:33:37;100793.81;;;8.58;100.00
6565;BME280;3316;44.118;27.258;2022-11-20T08:36:03;100789.44;;;8.67;100.00
6565;BME280;3316;44.118;27.258;2022-11-20T08:38:29;100780.69;;;8.68;100.00
6565;BME280;3316;44.118;27.258;2022-11-20T08:41:02;100794.69;;;8.78;100.00
6565;BME280;3316;44.118;27.258;2022-11-20T08:43:47;100780.69;;;8.80;100.00
6565;BME280;3316;44.118;27.258;2022-11-20T08:46:12;100777.22;;;8.75;100.00
6565;BME280;3316;44.118;27.258;2022-11-20T08:48:38;100779.81;;;8.80;100.00
6565;BME280;3316;44.118;27.258;2022-11-20T08:51:03;100778.06;;;8.92;100.00
6565;BME280;3316;44.118;27.258;2022-11-20T08:53:29;100750.94;;;8.86;100.00
6565;BME280;3316;44.118;27.258;2022-11-20T08:55:56;100754.47;;;8.85;100.00
6565;BME280;3316;44.118;27.258;2022-11-20T08:58:22;100764.06;;;8.96;100.00
6565;BME280;3316;44.118;27.258;2022-11-20T09:00:47;100695.03;;;8.60;100.00
6565;BME280;3316;44.118;27.258;2022-11-20T09:03:13;100764.91;;;9.03;100.00
6565;BME280;3316;44.118;27.258;2022-11-20T09:05:38;100754.41;;;9.03;100.00
6565;BME280;3316;44.118;27.258;2022-11-20T09:08:04;100767.53;;;9.02;100.00
6565;BME280;3316;44.118;27.258;2022-11-20T09:10:30;100783.28;;;8.95;100.00
6565;BME280;3316;44.118;27.258;2022-11-20T09:12:55;100767.53;;;8.95;100.00
6565;BME280;3316;44.118;27.258;2022-11-20T09:15:21;100770.16;;;9.00;100.00
6565;BME280;3316;44.118;27.258;2022-11-20T09:17:59;100780.63;;;9.09;100.00
6565;BME280;3316;44.118;27.258;2022-11-20T09:20:26;100763.19;;;8.93;100.00
6565;BME280;3316;44.118;27.258;2022-11-20T09:22:52;100739.56;;;9.02;100.00
6565;BME280;3316;44.118;27.258;2022-11-20T09:25:17;100760.50;;;9.20;100.00
6565;BME280;3316;44.118;27.258;2022-11-20T09:27:43;100694.09;;;8.88;100.00
6565;BME280;3316;44.118;27.258;2022-11-20T09:30:11;100709.75;;;9.24;100.00
6565;BME280;3316;44.118;27.258;2022-11-20T09:32:39;100696.59;;;9.27;100.00
6565;BME280;3316;44.118;27.258;2022-11-20T09:35:04;100693.06;;;9.36;100.00
6565;BME280;3316;44.118;27.258;2022-11-20T09:37:30;100694.03;;;9.14;100.00
6565;BME280;3316;44.118;27.258;2022-11-20T09:39:55;100694.03;;;9.11;100.00
6565;BME280;3316;44.118;27.258;2022-11-20T09:42:45;100684.41;;;9.14;100.00
6565;BME280;3316;44.118;27.258;2022-11-20T09:48:00;100693.22;;;8.92;100.00
6565;BME280;3316;44.118;27.258;2022-11-20T09:50:43;100699.38;;;8.83;100.00
6565;BME280;3316;44.118;27.258;2022-11-20T09:56:08;100694.97;;;8.90;100.00
6565;BME280;3316;44.118;27.258;2022-11-20T09:58:47;100687.97;;;8.95;100.00
6565;BME280;3316;44.118;27.258;2022-11-20T10:01:19;100665.28;;;8.71;100.00
6565;BME280;3316;44.118;27.258;2022-11-20T10:04:15;100680.13;;;8.89;100.00
6565;BME280;3316;44.118;27.258;2022-11-20T10:09:32;100671.25;;;9.20;100.00
6565;BME280;3316;44.118;27.258;2022-11-20T10:17:18;100659.63;;;9.66;100.00
6565;BME280;3316;44.118;27.258;2022-11-20T10:25:39;100632.53;;;9.61;100.00
6565;BME280;3316;44.118;27.258;2022-11-20T10:31:00;100649.16;;;9.63;100.00
6565;BME280;3316;44.118;27.258;2022-11-20T10:33:29;100682.34;;;9.75;100.00
6565;BME280;3316;44.118;27.258;2022-11-20T10:38:42;100674.25;;;10.04;100.00
6565;BME280;3316;44.118;27.258;2022-11-20T10:41:16;100721.53;;;10.16;100.00
6565;BME280;3316;44.118;27.258;2022-11-20T10:44:22;100691.72;;;10.17;100.00
6565;BME280;3316;44.118;27.258;2022-11-20T10:47:13;100653.31;;;9.92;100.00
6565;BME280;3316;44.118;27.258;2022-11-20T10:49:40;100703.09;;;10.14;100.00
6565;BME280;3316;44.118;27.258;2022-11-20T11:00:12;100685.53;;;10.24;100.00
6565;BME280;3316;44.118;27.258;2022-11-20T11:02:46;100672.31;;;10.28;100.00
6565;BME280;3316;44.118;27.258;2022-11-20T11:05:41;100680.94;;;10.48;100.00
6565;BME280;3316;44.118;27.258;2022-11-20T11:08:14;100694.13;;;10.45;100.00
6565;BME280;3316;44.118;27.258;2022-11-20T11:11:13;100689.78;;;10.41;100.00
6565;BME280;3316;44.118;27.258;2022-11-20T11:13:43;100692.34;;;10.46;100.00
6565;BME280;3316;44.118;27.258;2022-11-20T11:16:20;100699.44;;;10.39;100.00
6565;BME280;3316;44.118;27.258;2022-11-20T11:18:46;100696.66;;;10.51;100.00
6565;BME280;3316;44.118;27.258;2022-11-20T11:21:12;100696.75;;;10.42;100.00
6565;BME280;3316;44.118;27.258;2022-11-20T11:23:42;100696.72;;;10.44;100.00
6565;BME280;3316;44.118;27.258;2022-11-20T11:26:22;100679.22;;;10.44;100.00
6565;BME280;3316;44.118;27.258;2022-11-20T11:31:28;100696.72;;;10.48;100.00
6565;BME280;3316;44.118;27.258;2022-11-20T11:34:10;100706.25;;;10.58;100.00
6565;BME280;3316;44.118;27.258;2022-11-20T11:36:37;100712.34;;;10.66;100.00
6565;BME280;3316;44.118;27.258;2022-11-20T11:39:05;100703.56;;;10.63;100.00
6565;BME280;3316;44.118;27.258;2022-11-20T11:41:33;100720.38;;;10.48;100.00
6565;BME280;3316;44.118;27.258;2022-11-20T11:47:30;100728.22;;;10.51;100.00
6565;BME280;3316;44.118;27.258;2022-11-20T11:50:16;100696.81;;;10.35;100.00
6565;BME280;3316;44.118;27.258;2022-11-20T11:55:15;100723.91;;;10.49;100.00
6565;BME280;3316;44.118;27.258;2022-11-20T11:58:05;100730.88;;;10.50;100.00
6565;BME280;3316;44.118;27.258;2022-11-20T12:00:32;100721.25;;;10.49;100.00
6565;BME280;3316;44.118;27.258;2022-11-20T12:03:17;100709.94;;;10.38;100.00
6565;BME280;3316;44.118;27.258;2022-11-20T12:05:49;100702.97;;;10.34;100.00
6565;BME280;3316;44.118;27.258;2022-11-20T12:08:32;100708.19;;;10.41;100.00
6565;BME280;3316;44.118;27.258;2022-11-20T12:11:24;100715.09;;;10.50;100.00
6565;BME280;3316;44.118;27.258;2022-11-20T12:14:11;100702.13;;;10.29;100.00
6565;BME280;3316;44.118;27.258;2022-11-20T12:16:39;100738.94;;;10.33;100.00
6565;BME280;3316;44.118;27.258;2022-11-20T12:19:11;100738.94;;;10.33;100.00
6565;BME280;3316;44.118;27.258;2022-11-20T12:30:09;100745.06;;;10.32;100.00
6565;BME280;3316;44.118;27.258;2022-11-20T12:44:13;100720.44;;;10.41;100.00
6565;BME280;3316;44.118;27.258;2022-11-20T12:50:40;100716.81;;;10.55;100.00
6565;BME280;3316;44.118;27.258;2022-11-20T12:53:40;100702.81;;;10.50;100.00
6565;BME280;3316;44.118;27.258;2022-11-20T12:56:30;100713.28;;;10.58;100.00
6565;BME280;3316;44.118;27.258;2022-11-20T13:07:24;100706.50;;;10.33;100.00
6565;BME280;3316;44.118;27.258;2022-11-20T13:09:52;100720.47;;;10.39;100.00
6565;BME280;3316;44.118;27.258;2022-11-20T13:12:35;100697.91;;;10.10;100.00
6565;BME280;3316;44.118;27.258;2022-11-20T13:17:56;100740.84;;;10.10;100.00
6565;BME280;3316;44.118;27.258;2022-11-20T13:20:23;100747.94;;;9.95;100.00
6565;BME280;3316;44.118;27.258;2022-11-20T13:22:53;100730.41;;;9.92;100.00
6565;BME280;3316;44.118;27.258;2022-11-20T13:25:33;100727.78;;;9.94;100.00
6565;BME280;3316;44.118;27.258;2022-11-20T13:28:01;100733.88;;;9.96;100.00
6565;BME280;3316;44.118;27.258;2022-11-20T13:30:29;100743.53;;;9.98;100.00
6565;BME280;3316;44.118;27.258;2022-11-20T13:33:04;100731.28;;;9.93;100.00
6565;BME280;3316;44.118;27.258;2022-11-20T13:35:35;100749.69;;;9.94;100.00
6565;BME280;3316;44.118;27.258;2022-11-20T13:38:11;100757.63;;;9.82;100.00
6565;BME280;3316;44.118;27.258;2022-11-20T13:40:39;100740.97;;;9.81;100.00
6565;BME280;3316;44.118;27.258;2022-11-20T13:43:37;100722.66;;;9.72;100.00
6565;BME280;3316;44.118;27.258;2022-11-20T13:46:08;100760.22;;;9.88;100.00
6565;BME280;3316;44.118;27.258;2022-11-20T13:48:39;100740.94;;;9.89;100.00
6565;BME280;3316;44.118;27.258;2022-11-20T13:57:14;100725.34;;;9.56;100.00
6565;BME280;3316;44.118;27.258;2022-11-20T14:02:32;100740.97;;;9.86;100.00
6565;BME280;3316;44.118;27.258;2022-11-20T14:04:59;100754.94;;;9.89;100.00
6565;BME280;3316;44.118;27.258;2022-11-20T14:07:37;100762.78;;;10.02;100.00
6565;BME280;3316;44.118;27.258;2022-11-20T14:10:05;100756.72;;;9.87;100.00
6565;BME280;3316;44.118;27.258;2022-11-20T14:12:33;100754.06;;;9.97;100.00
6565;BME280;3316;44.118;27.258;2022-11-20T14:14:59;100745.22;;;10.08;100.00
6565;BME280;3316;44.118;27.258;2022-11-20T14:17:35;100754.06;;;9.97;100.00
6565;BME280;3316;44.118;27.258;2022-11-20T14:20:12;100733.06;;;9.83;100.00
6565;BME280;3316;44.118;27.258;2022-11-20T14:22:39;100734.91;;;9.70;100.00
6565;BME280;3316;44.118;27.258;2022-11-20T14:27:44;100631.00;;;9.24;100.00
6565;BME280;3316;44.118;27.258;2022-11-20T14:30:15;100754.03;;;10.00;100.00
6565;BME280;3316;44.118;27.258;2022-11-20T14:32:43;100757.50;;;10.02;100.00
6565;BME280;3316;44.118;27.258;2022-11-20T14:35:14;100756.69;;;9.97;100.00
6565;BME280;3316;44.118;27.258;2022-11-20T14:37:44;100701.53;;;9.86;100.00
6565;BME280;3316;44.118;27.258;2022-11-20T14:40:43;100737.28;;;10.14;100.00
6565;BME280;3316;44.118;27.258;2022-11-20T14:43:27;100744.34;;;10.11;100.00